Time;durP1;ratioP1;P1;durP2;ratioP2;P2;SDS_P1;SDS_P2;PMS_P1;PMS_P2;Temp;Humidity;BMP_temperature;BMP_pressure;BME280_temperature;BME280_humidity;BME280_pressure;Samples;Min_cycle;Max_cycle;Signal;HPM_P1;HPM_P2
2021/05/21 00:00:51;;;;;;;4.10;0.90;;;;;;;15.50;55.69;100547.41;4953578;29;20051;-66
2021/05/21 00:03:18;;;;;;;6.20;1.20;;;;;;;15.45;55.60;100542.94;4953344;29;20055;-67
2021/05/21 00:05:46;;;;;;;8.43;1.10;;;;;;;15.23;56.22;100548.13;4954008;29;20058;-66
2021/05/21 00:08:13;;;;;;;5.22;1.45;;;;;;;15.12;56.49;100546.97;4953827;29;20055;-66
2021/05/21 00:15:10;;;;;;;6.72;1.38;;;;;;;15.38;56.38;100517.69;4953589;29;20054;-67
2021/05/21 00:17:38;;;;;;;7.80;1.55;;;;;;;15.32;56.07;100530.22;4954336;29;20051;-67
2021/05/21 00:20:10;;;;;;;8.95;1.27;;;;;;;15.10;56.96;100543.78;4937507;29;20062;-67
2021/05/21 00:22:38;;;;;;;7.68;1.30;;;;;;;15.29;56.24;100530.91;4954340;29;20062;-66
2021/05/21 00:29:28;;;;;;;7.65;1.50;;;;;;;15.02;57.11;100516.94;4952983;28;20488;-68
2021/05/21 00:31:55;;;;;;;7.15;1.10;;;;;;;15.00;57.24;100520.06;4937439;29;20053;-68
2021/05/21 00:34:23;;;;;;;6.68;1.45;;;;;;;15.08;56.82;100516.34;4960574;28;20050;-66
2021/05/21 00:36:51;;;;;;;7.00;1.25;;;;;;;15.08;56.65;100513.56;4921279;29;20055;-67
2021/05/21 00:39:19;;;;;;;7.68;1.98;;;;;;;15.14;56.82;100514.16;4953495;29;20051;-68
2021/05/21 00:41:47;;;;;;;8.10;1.42;;;;;;;15.17;56.38;100516.22;4953791;29;20051;-69
2021/05/21 00:44:14;;;;;;;6.32;1.15;;;;;;;15.07;56.87;100516.69;4937270;29;20058;-68
2021/05/21 00:46:42;;;;;;;9.27;1.55;;;;;;;15.10;56.86;100522.38;4936874;29;20055;-68
2021/05/21 00:49:09;;;;;;;8.30;1.95;;;;;;;15.04;56.99;100522.97;4953350;29;20067;-69
2021/05/21 00:51:37;;;;;;;6.07;1.33;;;;;;;14.98;57.27;100519.59;4953791;29;20062;-67
2021/05/21 00:54:04;;;;;;;5.65;1.58;;;;;;;15.08;57.37;100512.78;4937172;29;20051;-67
2021/05/21 01:01:12;;;;;;;9.52;1.73;;;;;;;15.03;57.96;100513.03;4935955;29;20046;-68
2021/05/21 01:03:40;;;;;;;5.65;1.50;;;;;;;14.93;58.23;100513.47;4936585;29;20052;-68
2021/05/21 01:06:11;;;;;;;12.38;1.95;;;;;;;15.03;57.82;100513.81;4937248;29;20051;-67
2021/05/21 01:08:38;;;;;;;10.90;2.20;;;;;;;14.65;59.01;100510.59;4936733;29;20051;-68
2021/05/21 01:11:07;;;;;;;13.27;2.75;;;;;;;14.81;58.54;100517.06;4952747;29;20047;-69
2021/05/21 01:13:35;;;;;;;11.95;2.05;;;;;;;14.79;58.75;100527.69;4953756;29;20051;-68
2021/05/21 01:16:02;;;;;;;10.80;1.77;;;;;;;14.90;58.67;100525.28;4936834;29;20047;-67
2021/05/21 01:18:30;;;;;;;11.30;2.20;;;;;;;15.01;58.19;100520.88;4936029;29;20055;-68
2021/05/21 01:20:58;;;;;;;7.07;1.70;;;;;;;14.95;58.58;100519.47;4953085;29;20063;-68
2021/05/21 01:23:26;;;;;;;10.50;1.80;;;;;;;14.92;58.45;100521.00;4954094;29;20056;-66
2021/05/21 01:25:53;;;;;;;11.35;1.98;;;;;;;14.88;59.04;100524.81;4936524;29;20047;-68
2021/05/21 01:28:21;;;;;;;9.02;2.00;;;;;;;14.84;59.16;100527.47;4936611;29;20499;-68
2021/05/21 01:30:49;;;;;;;11.27;2.13;;;;;;;14.70;59.69;100518.66;4954073;28;20067;-69
2021/05/21 01:33:17;;;;;;;8.63;1.80;;;;;;;14.68;59.61;100512.66;4956772;29;20062;-68
2021/05/21 01:35:45;;;;;;;9.68;2.13;;;;;;;14.87;59.23;100512.88;4940224;29;20043;-67
2021/05/21 01:38:13;;;;;;;13.60;1.73;;;;;;;14.56;59.98;100507.91;4957220;29;20059;-69
2021/05/21 01:40:42;;;;;;;9.40;1.90;;;;;;;14.72;59.73;100513.59;4957152;29;20055;-68
2021/05/21 01:43:11;;;;;;;8.80;2.47;;;;;;;14.46;60.23;100507.56;4940148;29;20043;-67
2021/05/21 01:45:40;;;;;;;11.95;2.72;;;;;;;14.97;58.94;100506.09;4939507;29;20055;-67
2021/05/21 01:48:10;;;;;;;8.30;1.60;;;;;;;14.51;59.85;100507.34;4956965;29;20483;-68
2021/05/21 01:50:38;;;;;;;12.43;2.17;;;;;;;14.59;60.15;100495.34;4939419;29;20047;-67
2021/05/21 01:53:07;;;;;;;10.15;2.00;;;;;;;14.39;60.47;100487.91;4956462;29;20043;-67
2021/05/21 01:55:35;;;;;;;13.30;2.60;;;;;;;14.34;60.32;100497.28;4939558;29;20062;-67
2021/05/21 01:58:03;;;;;;;11.57;2.28;;;;;;;14.36;60.33;100494.16;4955985;29;20054;-67
2021/05/21 02:00:30;;;;;;;10.95;2.42;;;;;;;14.41;59.75;100483.66;4956367;29;20057;-67
2021/05/21 02:02:59;;;;;;;8.02;2.05;;;;;;;14.57;59.68;100481.03;4939264;29;20047;-68
2021/05/21 02:05:26;;;;;;;15.50;2.70;;;;;;;14.55;59.47;100494.41;4939897;29;20116;-68
2021/05/21 02:07:54;;;;;;;14.82;3.00;;;;;;;14.59;59.22;100478.72;4956330;29;20047;-67
2021/05/21 02:10:21;;;;;;;13.23;2.67;;;;;;;14.28;59.94;100483.97;4956525;29;20054;-66
2021/05/21 02:12:49;;;;;;;12.20;2.63;;;;;;;14.32;59.82;100469.09;4939368;29;20051;-67
2021/05/21 02:15:18;;;;;;;14.18;2.53;;;;;;;14.41;59.76;100467.03;4956609;29;20055;-67
2021/05/21 02:17:45;;;;;;;15.68;3.13;;;;;;;14.56;59.31;100473.84;4939514;29;20435;-68
2021/05/21 02:20:13;;;;;;;16.30;2.40;;;;;;;14.27;59.67;100471.28;4939753;29;20062;-67
2021/05/21 02:22:42;;;;;;;18.08;3.17;;;;;;;14.43;59.57;100475.81;4939220;29;20074;-68
2021/05/21 02:25:11;;;;;;;17.33;2.78;;;;;;;14.72;58.57;100473.97;4955551;29;20070;-67
2021/05/21 02:32:01;;;;;;;14.07;2.78;;;;;;;14.55;58.32;100469.47;4955055;28;20499;-68
2021/05/21 02:34:29;;;;;;;14.45;3.03;;;;;;;14.36;58.58;100466.44;4939219;29;20051;-67
2021/05/21 02:36:56;;;;;;;13.15;2.78;;;;;;;14.68;57.72;100481.38;4955586;29;20058;-69
2021/05/21 02:39:23;;;;;;;17.92;3.38;;;;;;;14.40;58.14;100490.34;4955725;29;20066;-68
2021/05/21 02:46:28;;;;;;;15.98;2.85;;;;;;;14.37;58.49;100499.34;4955448;29;20051;-67
2021/05/21 02:48:56;;;;;;;15.57;2.80;;;;;;;14.33;58.76;100484.56;4956324;29;20506;-67
2021/05/21 02:51:24;;;;;;;18.15;3.15;;;;;;;14.59;57.68;100481.50;4955483;29;20047;-68
2021/05/21 02:53:52;;;;;;;15.13;2.35;;;;;;;14.48;58.47;100486.69;4938231;29;20062;-68
2021/05/21 02:56:19;;;;;;;16.02;2.90;;;;;;;14.37;58.69;100490.22;4937848;29;20058;-67
2021/05/21 02:58:47;;;;;;;17.15;2.88;;;;;;;14.41;58.12;100500.28;4955279;29;20059;-68
2021/05/21 03:01:14;;;;;;;19.65;3.33;;;;;;;14.35;58.36;100492.53;4956052;29;20047;-68
2021/05/21 03:03:43;;;;;;;21.13;3.30;;;;;;;14.47;58.18;100487.81;4954932;29;20051;-68
2021/05/21 03:06:10;;;;;;;13.93;2.80;;;;;;;14.28;57.90;100470.94;4954941;29;20406;-68
2021/05/21 03:08:38;;;;;;;21.70;3.88;;;;;;;14.33;58.25;100472.69;4954902;29;20047;-68
2021/05/21 03:11:05;;;;;;;17.30;3.08;;;;;;;14.14;58.28;100466.84;4954817;29;20066;-68
2021/05/21 03:13:35;;;;;;;19.55;3.72;;;;;;;14.15;58.44;100458.19;4954893;29;20387;-68
2021/05/21 03:16:03;;;;;;;21.45;3.17;;;;;;;14.12;58.17;100447.78;4938473;29;20046;-67
2021/05/21 03:18:31;;;;;;;20.75;3.35;;;;;;;14.26;57.41;100451.06;4938806;29;20055;-67
2021/05/21 03:20:58;;;;;;;22.58;3.70;;;;;;;14.22;58.36;100449.31;4921912;29;20052;-68
2021/05/21 03:23:26;;;;;;;18.65;3.72;;;;;;;14.10;58.44;100452.06;4938091;29;20062;-66
2021/05/21 03:25:53;;;;;;;22.13;3.83;;;;;;;13.78;58.98;100463.97;4891060;29;20526;-67
2021/05/21 03:32:43;;;;;;;24.20;4.38;;;;;;;13.85;58.75;100465.03;4954842;28;20457;-67
2021/05/21 03:35:11;;;;;;;27.10;4.88;;;;;;;13.75;58.91;100465.47;4954624;29;20599;-67
2021/05/21 03:37:38;;;;;;;20.77;3.47;;;;;;;13.83;59.04;100463.75;4954365;29;20521;-68
2021/05/21 03:40:06;;;;;;;24.95;4.30;;;;;;;13.93;58.83;100452.25;4937622;29;20066;-67
2021/05/21 03:47:11;;;;;;;22.23;4.40;;;;;;;14.03;58.99;100449.03;4937035;29;20062;-67
2021/05/21 03:49:38;;;;;;;25.05;4.20;;;;;;;14.19;57.74;100461.09;4936810;29;20050;-69
2021/05/21 03:52:06;;;;;;;17.33;3.70;;;;;;;14.01;58.56;100454.94;4953930;29;20062;-69
2021/05/21 03:54:33;;;;;;;22.70;3.75;;;;;;;13.93;58.86;100430.91;4953976;28;20055;-69
2021/05/21 03:57:04;;;;;;;22.83;4.07;;;;;;;14.10;58.34;100439.03;4936654;29;20054;-68
2021/05/21 03:59:31;;;;;;;20.95;3.63;;;;;;;13.82;59.11;100448.28;4953989;29;20055;-68
2021/05/21 04:01:59;;;;;;;21.40;4.18;;;;;;;13.83;59.17;100461.78;4954538;29;20039;-68
2021/05/21 04:04:26;;;;;;;21.65;3.85;;;;;;;13.75;59.37;100448.03;4954300;29;20043;-68
2021/05/21 04:06:54;;;;;;;22.65;3.83;;;;;;;13.69;59.84;100443.84;4954864;29;20055;-68
2021/05/21 04:09:22;;;;;;;23.25;4.40;;;;;;;13.74;59.18;100450.00;4937882;29;20047;-68
2021/05/21 04:11:49;;;;;;;26.50;4.30;;;;;;;13.78;59.38;100439.84;4953998;29;20054;-66
2021/05/21 04:14:17;;;;;;;24.90;3.72;;;;;;;13.96;59.43;100448.78;4954444;29;20056;-68
2021/05/21 04:16:44;;;;;;;20.23;3.58;;;;;;;13.93;58.37;100446.72;4953766;29;20128;-67
2021/05/21 04:19:12;;;;;;;31.85;4.43;;;;;;;13.91;58.51;100424.91;4953591;29;20055;-68
2021/05/21 04:21:40;;;;;;;21.08;4.50;;;;;;;13.92;58.46;100420.16;4937322;29;20051;-67
2021/05/21 04:24:08;;;;;;;26.42;3.95;;;;;;;13.86;58.67;100438.16;4937705;29;20047;-66
2021/05/21 04:26:35;;;;;;;24.77;5.47;;;;;;;13.79;58.77;100427.63;4954217;29;20052;-68
2021/05/21 04:33:39;;;;;;;19.90;4.18;;;;;;;14.19;58.23;100425.06;4934977;29;20043;-67
2021/05/21 04:36:07;;;;;;;34.65;4.50;;;;;;;13.93;58.29;100422.59;4917462;29;20047;-68
2021/05/21 04:38:34;;;;;;;22.73;4.60;;;;;;;13.96;58.38;100433.00;4917149;29;20059;-68
2021/05/21 04:41:03;;;;;;;25.63;4.45;;;;;;;13.86;59.22;100427.09;4917570;29;20169;-69
2021/05/21 04:48:08;;;;;;;26.38;4.45;;;;;;;13.85;59.05;100422.69;4934302;29;20058;-66
2021/05/21 04:50:37;;;;;;;22.40;4.00;;;;;;;13.76;59.10;100403.41;4934331;29;20063;-68
2021/05/21 04:53:04;;;;;;;27.55;4.50;;;;;;;13.67;59.22;100418.50;4934279;29;20154;-67
2021/05/21 04:55:32;;;;;;;22.75;3.83;;;;;;;13.70;59.32;100418.63;4934102;29;20052;-67
2021/05/21 04:57:59;;;;;;;27.00;5.10;;;;;;;13.97;58.85;100404.16;4934067;29;20168;-67
2021/05/21 05:00:27;;;;;;;22.40;4.63;;;;;;;13.85;58.78;100417.16;4934886;29;20052;-67
2021/05/21 05:02:54;;;;;;;26.13;4.35;;;;;;;13.68;59.29;100420.91;4934724;29;20047;-67
2021/05/21 05:05:25;;;;;;;23.23;4.30;;;;;;;13.67;60.01;100418.50;4903323;29;20519;-67
2021/05/21 05:07:53;;;;;;;18.13;4.60;;;;;;;13.78;59.38;100409.41;4920966;29;20059;-67
2021/05/21 05:10:20;;;;;;;28.55;4.55;;;;;;;13.84;59.64;100410.00;4938652;29;20056;-67
2021/05/21 05:12:48;;;;;;;24.50;4.45;;;;;;;13.89;59.50;100410.59;4938587;29;20404;-69
2021/05/21 05:15:15;;;;;;;25.42;3.92;;;;;;;13.93;59.29;100411.50;4938603;29;20440;-68
2021/05/21 05:17:43;;;;;;;25.73;4.53;;;;;;;14.15;59.34;100411.09;4921517;29;20177;-67
2021/05/21 05:20:11;;;;;;;25.13;4.72;;;;;;;13.93;59.72;100405.97;4920991;29;20051;-68
2021/05/21 05:22:38;;;;;;;26.65;4.25;;;;;;;14.14;59.40;100390.09;4937842;29;20066;-69
2021/05/21 05:25:06;;;;;;;27.02;4.68;;;;;;;14.22;59.30;100380.06;4921324;29;20071;-67
2021/05/21 05:27:34;;;;;;;21.08;4.75;;;;;;;14.15;59.74;100380.63;4938232;29;20048;-69
2021/05/21 05:30:03;;;;;;;25.77;4.32;;;;;;;14.30;59.41;100391.06;4920585;29;20059;-68
2021/05/21 05:32:31;;;;;;;23.52;4.80;;;;;;;14.07;59.87;100381.53;4949609;29;20469;-67
2021/05/21 05:34:59;;;;;;;27.13;5.05;;;;;;;14.02;60.33;100379.00;4956869;29;20076;-67
2021/05/21 05:37:26;;;;;;;20.65;4.72;;;;;;;14.18;60.02;100384.66;4957003;29;20051;-67
2021/05/21 05:39:54;;;;;;;32.67;4.78;;;;;;;14.29;59.75;100394.16;4939990;29;20058;-66
2021/05/21 05:42:21;;;;;;;25.42;4.68;;;;;;;14.28;60.03;100400.84;4956238;29;20403;-68
2021/05/21 05:49:16;;;;;;;28.05;5.07;;;;;;;14.30;60.06;100404.91;4957074;29;20043;-68
2021/05/21 05:51:44;;;;;;;16.15;3.42;;;;;;;14.34;60.46;100405.84;4956220;29;20055;-68
2021/05/21 05:54:12;;;;;;;26.83;4.32;;;;;;;14.44;60.08;100404.56;4954261;29;20368;-69
2021/05/21 05:56:39;;;;;;;26.08;4.90;;;;;;;14.55;59.30;100394.63;4955064;29;20046;-67
2021/05/21 06:03:34;;;;;;;24.48;4.53;;;;;;;14.23;60.20;100396.31;4956551;29;20402;-67
2021/05/21 06:06:02;;;;;;;27.63;4.88;;;;;;;14.14;60.09;100408.69;4956578;29;20407;-67
2021/05/21 06:08:50;;;;;;;26.83;5.32;;;;;;;14.34;59.88;100388.41;4956479;29;20051;-66
2021/05/21 06:11:17;;;;;;;25.42;4.40;;;;;;;14.34;60.09;100389.22;4956457;29;20051;-66
2021/05/21 06:18:13;;;;;;;23.20;5.00;;;;;;;14.52;59.43;100382.25;4955738;28;20435;-66
2021/05/21 06:20:42;;;;;;;23.65;5.00;;;;;;;14.59;59.22;100379.72;4938720;29;20055;-67
2021/05/21 06:23:10;;;;;;;21.92;4.53;;;;;;;14.60;59.28;100386.06;4939038;29;20058;-67
2021/05/21 06:25:41;;;;;;;24.85;4.82;;;;;;;14.77;58.82;100391.38;4939041;29;20062;-66
2021/05/21 06:32:33;;;;;;;30.15;4.35;;;;;;;15.01;57.80;100394.06;4955996;28;20399;-66
2021/05/21 06:35:00;;;;;;;30.42;7.47;;;;;;;15.17;57.69;100402.47;4955437;29;20058;-65
2021/05/21 06:37:29;;;;;;;24.30;4.60;;;;;;;15.00;58.07;100388.88;4955739;29;20471;-65
2021/05/21 06:40:09;;;;;;;26.40;4.55;;;;;;;15.02;58.04;100392.13;4952931;29;20056;-65
2021/05/21 06:42:37;;;;;;;26.65;4.95;;;;;;;15.11;57.13;100399.16;4955826;29;20062;-66
2021/05/21 06:49:36;;;;;;;27.40;5.75;;;;;;;15.15;57.52;100402.03;4955097;29;20123;-68
2021/05/21 06:52:04;;;;;;;21.83;4.05;;;;;;;15.29;56.90;100406.00;4955870;29;20055;-68
2021/05/21 06:54:32;;;;;;;21.60;4.45;;;;;;;15.29;57.08;100417.13;4954949;29;20059;-67
2021/05/21 06:57:00;;;;;;;22.40;4.32;;;;;;;15.43;56.43;100406.47;4954821;29;20445;-67
2021/05/21 07:03:57;;;;;;;42.80;8.23;;;;;;;15.41;56.41;100406.00;4955467;29;20146;-66
2021/05/21 07:06:24;;;;;;;24.80;5.20;;;;;;;15.53;55.43;100400.41;4938443;29;20054;-67
2021/05/21 07:08:51;;;;;;;22.67;5.25;;;;;;;15.50;57.44;100409.44;4955016;29;20058;-69
2021/05/21 07:11:19;;;;;;;25.95;4.95;;;;;;;15.59;55.16;100401.75;4937993;29;20060;-67
2021/05/21 07:18:14;;;;;;;24.10;4.45;;;;;;;15.23;55.03;100404.66;4954792;29;20043;-66
2021/05/21 07:20:45;;;;;;;26.27;4.70;;;;;;;15.24;55.62;100411.81;4938610;29;20062;-67
2021/05/21 07:23:14;;;;;;;26.83;4.35;;;;;;;15.44;55.14;100412.81;4955253;29;20058;-66
2021/05/21 07:25:43;;;;;;;23.93;5.17;;;;;;;15.18;54.91;100410.47;4955369;29;20499;-67
2021/05/21 07:28:10;;;;;;;33.42;5.13;;;;;;;15.15;55.42;100413.91;4954520;28;20047;-67
2021/05/21 07:35:02;;;;;;;22.25;4.10;;;;;;;15.48;54.93;100419.28;4954928;28;20430;-66
2021/05/21 07:37:30;;;;;;;32.28;4.72;;;;;;;15.96;53.95;100409.88;4954171;29;20498;-66
2021/05/21 07:39:57;;;;;;;24.92;4.82;;;;;;;16.19;52.45;100402.56;4954672;29;20047;-66
2021/05/21 07:42:26;;;;;;;19.95;4.15;;;;;;;15.89;52.69;100385.53;4954546;29;20047;-67
2021/05/21 07:49:30;;;;;;;26.75;5.70;;;;;;;16.09;51.11;100389.22;4953710;29;20381;-68
2021/05/21 07:51:58;;;;;;;24.45;4.80;;;;;;;16.15;51.36;100383.03;4937462;29;20066;-68
2021/05/21 07:54:25;;;;;;;25.77;4.13;;;;;;;16.28;50.35;100381.78;4954486;29;20055;-67
2021/05/21 07:56:53;;;;;;;17.15;3.90;;;;;;;15.88;49.70;100383.91;4954608;29;20520;-67
2021/05/21 07:59:20;;;;;;;27.80;4.03;;;;;;;15.89;49.12;100382.75;4937291;29;20055;-67
2021/05/21 08:01:48;;;;;;;25.75;5.05;;;;;;;15.94;48.74;100378.88;4954540;29;20051;-69
2021/05/21 08:04:15;;;;;;;19.08;4.15;;;;;;;16.25;49.00;100376.13;4937534;29;20048;-68
2021/05/21 08:06:43;;;;;;;20.23;3.83;;;;;;;16.46;48.67;100380.25;4954366;29;20055;-69
2021/05/21 08:09:10;;;;;;;21.17;4.22;;;;;;;16.84;47.80;100377.56;4936707;29;20495;-68
2021/05/21 08:11:38;;;;;;;14.15;3.80;;;;;;;17.03;47.32;100374.03;4953728;29;20063;-67
2021/05/21 08:14:08;;;;;;;20.48;3.90;;;;;;;16.40;47.94;100380.88;4954152;29;20047;-65
2021/05/21 08:20:53;;;;;;;16.65;4.03;;;;;;;16.80;47.40;100373.09;4953848;29;19925;-71
2021/05/21 08:23:21;;;;;;;19.90;3.45;;;;;;;16.92;46.75;100367.41;4937020;29;20074;-70
2021/05/21 08:25:49;;;;;;;21.80;4.25;;;;;;;17.13;47.14;100367.88;4953648;29;20088;-69
2021/05/21 08:28:16;;;;;;;19.30;3.97;;;;;;;17.19;45.84;100369.19;4953855;29;20483;-69
2021/05/21 08:30:44;;;;;;;20.25;4.07;;;;;;;17.31;45.65;100379.38;4953784;29;20043;-67
2021/05/21 08:33:13;;;;;;;20.08;4.43;;;;;;;17.21;44.99;100377.19;4953919;28;20051;-67
2021/05/21 08:35:41;;;;;;;22.77;4.00;;;;;;;17.24;44.95;100385.63;4954114;29;20058;-65
2021/05/21 08:38:09;;;;;;;16.63;3.88;;;;;;;16.84;45.17;100368.44;4935579;29;20403;-67
2021/05/21 08:40:38;;;;;;;21.95;4.40;;;;;;;16.63;45.41;100381.84;4936493;29;20054;-67
2021/05/21 08:43:08;;;;;;;19.67;3.42;;;;;;;16.50;45.77;100383.13;4936802;29;20499;-66
2021/05/21 08:45:38;;;;;;;18.13;3.65;;;;;;;16.82;45.25;100376.34;4936207;29;20414;-67
2021/05/21 08:48:12;;;;;;;18.23;3.55;;;;;;;17.20;44.34;100381.13;4904782;29;20051;-64
2021/05/21 08:50:41;;;;;;;19.67;3.58;;;;;;;17.32;44.49;100381.78;4953886;29;20047;-70
2021/05/21 08:53:11;;;;;;;20.92;4.25;;;;;;;17.29;43.91;100376.97;4904152;29;20067;-69
2021/05/21 08:55:40;;;;;;;17.73;3.42;;;;;;;17.16;43.52;100375.47;4921961;29;20498;-69
2021/05/21 08:58:12;;;;;;;25.33;3.97;;;;;;;17.13;43.33;100369.84;4936535;29;20047;-69
2021/05/21 09:00:40;;;;;;;17.52;3.45;;;;;;;17.07;43.14;100368.53;4953166;29;20456;-70
2021/05/21 09:03:26;;;;;;;21.90;4.30;;;;;;;16.84;43.57;100374.00;4953592;29;20376;-70
2021/05/21 09:06:12;;;;;;;18.27;4.35;;;;;;;16.96;44.50;100373.88;4953975;29;20051;-70
2021/05/21 09:08:51;;;;;;;25.00;5.25;;;;;;;17.02;44.19;100377.16;4921411;29;20058;-70
2021/05/21 09:11:26;;;;;;;19.83;3.53;;;;;;;17.10;44.56;100362.22;4952833;29;20055;-69
2021/05/21 09:14:03;;;;;;;18.65;4.03;;;;;;;16.97;43.03;100361.56;4952787;29;20055;-69
2021/05/21 09:16:38;;;;;;;12.40;3.15;;;;;;;17.28;42.01;100371.75;4935824;29;20491;-69
2021/05/21 09:19:07;;;;;;;11.88;2.63;;;;;;;17.26;42.44;100374.09;4952869;29;20062;-68
2021/05/21 09:21:52;;;;;;;16.65;3.17;;;;;;;17.08;43.00;100372.91;4936483;29;20047;-70
2021/05/21 09:24:23;;;;;;;17.25;2.50;;;;;;;16.83;41.30;100362.06;4935893;29;20051;-67
2021/05/21 09:26:51;;;;;;;12.45;3.22;;;;;;;16.68;42.53;100370.44;4919973;29;20483;-66
2021/05/21 09:29:45;;;;;;;16.30;3.08;;;;;;;17.06;41.30;100373.28;4952757;29;20063;-69
2021/05/21 09:32:21;;;;;;;12.98;2.78;;;;;;;17.30;41.68;100363.81;4936048;29;20138;-71
2021/05/21 09:35:16;;;;;;;14.23;2.88;;;;;;;16.74;41.50;100358.66;4920143;29;20078;-70
2021/05/21 09:37:48;;;;;;;13.38;3.00;;;;;;;17.07;41.90;100358.19;4934759;29;20428;-68
2021/05/21 09:40:28;;;;;;;12.88;2.85;;;;;;;16.69;41.75;100350.59;4936015;29;20055;-71
2021/05/21 09:43:00;;;;;;;12.60;2.75;;;;;;;17.33;42.53;100354.75;4936163;29;20063;-69
2021/05/21 09:50:02;;;;;;;13.38;2.72;;;;;;;17.23;39.46;100346.97;4952409;29;20055;-71
2021/05/21 09:52:30;;;;;;;17.08;3.30;;;;;;;16.87;41.42;100334.31;4953586;28;20398;-68
2021/05/21 09:54:57;;;;;;;13.73;2.70;;;;;;;17.30;41.26;100347.94;4923711;29;20051;-68
2021/05/21 09:57:36;;;;;;;10.73;2.78;;;;;;;17.83;41.18;100343.41;4939874;29;20062;-69
2021/05/21 10:00:06;;;;;;;12.93;3.00;;;;;;;17.74;40.37;100338.09;4955764;29;20406;-67
2021/05/21 10:07:07;;;;;;;12.18;3.17;;;;;;;18.25;38.69;100326.59;4955533;29;20050;-65
2021/05/21 10:09:35;;;;;;;16.65;3.20;;;;;;;18.52;38.93;100325.44;4955215;29;20055;-68
2021/05/21 10:12:11;;;;;;;16.52;3.25;;;;;;;18.49;38.71;100323.44;4939286;29;20051;-71
2021/05/21 10:14:52;;;;;;;18.33;3.25;;;;;;;18.74;38.75;100311.44;4956405;29;20043;-68
2021/05/21 10:21:52;;;;;;;16.98;4.00;;;;;;;18.58;39.30;100318.38;4955034;29;20047;-67
2021/05/21 10:24:21;;;;;;;13.07;3.40;;;;;;;18.87;38.75;100309.22;4955024;29;20059;-67
2021/05/21 10:26:53;;;;;;;15.57;3.78;;;;;;;18.54;38.73;100314.72;4939499;29;20039;-65
2021/05/21 10:29:23;;;;;;;12.20;3.42;;;;;;;18.45;38.93;100320.59;4938977;29;20051;-67
2021/05/21 10:31:51;;;;;;;11.70;3.20;;;;;;;18.16;38.73;100309.34;4939006;29;20083;-68
2021/05/21 10:34:24;;;;;;;11.60;3.58;;;;;;;18.49;39.33;100303.91;4938348;29;20059;-68
2021/05/21 10:37:32;;;;;;;12.80;2.63;;;;;;;17.49;38.86;100317.31;4955179;29;20055;-68
2021/05/21 10:40:27;;;;;;;12.40;2.85;;;;;;;17.95;39.17;100304.22;4940890;29;20059;-66
2021/05/21 10:43:15;;;;;;;9.50;3.03;;;;;;;18.20;38.58;100304.63;4954600;29;20054;-69
2021/05/21 10:46:14;;;;;;;9.10;2.40;;;;;;;17.58;38.73;100295.63;4940723;29;20059;-66
2021/05/21 10:48:59;;;;;;;11.27;3.05;;;;;;;17.88;38.52;100304.09;4938129;29;20055;-68
2021/05/21 10:51:29;;;;;;;11.75;2.47;;;;;;;17.76;38.00;100307.06;4955236;29;20048;-66
2021/05/21 10:54:24;;;;;;;13.45;2.78;;;;;;;18.15;38.46;100310.53;4955732;29;20055;-69
2021/05/21 10:56:55;;;;;;;16.52;3.03;;;;;;;18.22;38.39;100299.50;4955303;29;20059;-68
2021/05/21 10:59:42;;;;;;;10.48;2.80;;;;;;;18.41;37.94;100297.41;4937714;29;20051;-68
2021/05/21 11:06:47;;;;;;;10.45;2.97;;;;;;;18.58;37.73;100296.06;4954913;29;20058;-67
2021/05/21 11:09:25;;;;;;;13.68;3.13;;;;;;;18.65;38.76;100298.97;4955080;29;20062;-69
2021/05/21 11:12:03;;;;;;;14.00;2.42;;;;;;;18.55;38.17;100289.25;4954577;29;20058;-69
2021/05/21 11:14:37;;;;;;;14.80;3.00;;;;;;;18.33;37.36;100287.31;4937431;29;20051;-67
2021/05/21 11:17:14;;;;;;;9.30;2.72;;;;;;;18.75;37.39;100287.13;4954804;29;20051;-68
2021/05/21 11:20:05;;;;;;;14.98;3.28;;;;;;;18.84;37.49;100282.88;4955412;29;20054;-68
2021/05/21 11:22:37;;;;;;;9.68;2.05;;;;;;;18.96;36.99;100293.81;4937040;29;20066;-70
2021/05/21 11:25:13;;;;;;;14.30;2.80;;;;;;;18.85;36.62;100289.25;4954654;29;20424;-70
2021/05/21 11:27:41;;;;;;;13.68;2.80;;;;;;;18.92;37.32;100286.56;4937939;29;20058;-69
2021/05/21 11:30:18;;;;;;;18.95;3.00;;;;;;;18.48;35.09;100282.78;4937745;29;20043;-68
2021/05/21 11:32:46;;;;;;;12.85;2.22;;;;;;;18.12;36.18;100273.03;4906517;28;20052;-67
2021/05/21 11:35:28;;;;;;;12.07;2.95;;;;;;;18.44;36.51;100273.56;4955285;29;20043;-68
2021/05/21 11:38:01;;;;;;;11.13;2.63;;;;;;;18.79;34.87;100269.25;4954894;29;20055;-69
2021/05/21 11:40:29;;;;;;;;;;;;;;;19.02;34.50;100277.53;4937846;29;20066;-68
2021/05/21 11:42:58;;;;;;;11.02;2.38;;;;;;;18.61;34.13;100286.94;4937924;29;19933;-70
2021/05/21 11:45:27;;;;;;;11.43;2.72;;;;;;;17.88;36.64;100284.59;4937363;29;20500;-68
2021/05/21 11:47:58;;;;;;;14.63;2.78;;;;;;;17.73;36.44;100269.59;4938671;29;20055;-68
2021/05/21 11:50:27;;;;;;;15.10;2.70;;;;;;;17.87;36.08;100269.84;4955149;29;20051;-68
2021/05/21 11:52:54;;;;;;;10.90;2.63;;;;;;;18.34;34.95;100258.22;4905319;29;20059;-70
2021/05/21 11:55:30;;;;;;;12.02;3.15;;;;;;;18.67;34.56;100252.75;4936989;29;20059;-68
2021/05/21 11:57:58;;;;;;;9.02;2.42;;;;;;;18.77;35.57;100249.31;4953730;29;20051;-68
2021/05/21 12:00:26;;;;;;;10.50;2.60;;;;;;;19.00;34.54;100257.56;4954570;29;20043;-68
2021/05/21 12:02:54;;;;;;;13.77;2.92;;;;;;;19.05;33.59;100241.28;4954323;29;20062;-70
2021/05/21 12:05:24;;;;;;;9.30;2.45;;;;;;;19.24;34.00;100236.69;4936918;29;20062;-69
2021/05/21 12:07:56;;;;;;;16.48;2.72;;;;;;;19.45;33.56;100234.13;4936710;29;20051;-67
2021/05/21 12:10:25;;;;;;;10.57;2.63;;;;;;;19.50;34.06;100231.78;4953781;29;20051;-68
2021/05/21 12:13:06;;;;;;;12.85;2.42;;;;;;;19.71;34.02;100225.59;4920996;29;20058;-70
2021/05/21 12:15:34;;;;;;;10.75;2.30;;;;;;;19.49;33.29;100215.41;4953352;28;20051;-70
2021/05/21 12:18:04;;;;;;;14.57;2.80;;;;;;;19.09;33.67;100213.38;4954233;29;20046;-69
2021/05/21 12:20:32;;;;;;;16.38;3.03;;;;;;;19.26;34.46;100221.16;4953202;29;20047;-69
2021/05/21 12:23:06;;;;;;;12.60;2.58;;;;;;;19.34;34.61;100208.06;4953421;29;20136;-69
2021/05/21 12:25:37;;;;;;;11.95;2.35;;;;;;;19.80;34.46;100198.13;4953941;29;20051;-73
2021/05/21 12:28:05;;;;;;;13.30;2.95;;;;;;;20.17;34.44;100186.81;4953924;29;20059;-71
2021/05/21 12:30:36;;;;;;;14.23;3.05;;;;;;;20.09;34.26;100185.94;4921079;29;20499;-71
2021/05/21 12:37:49;;;;;;;8.35;2.33;;;;;;;20.04;32.78;100167.53;4935935;29;20486;-71
2021/05/21 12:40:17;;;;;;;9.63;2.67;;;;;;;20.03;32.38;100177.09;4953669;29;20059;-71
2021/05/21 12:42:47;;;;;;;11.20;2.30;;;;;;;19.86;32.63;100183.38;4920182;29;20427;-70
2021/05/21 12:45:14;;;;;;;19.88;3.17;;;;;;;19.97;32.78;100169.47;4952748;29;20054;-69
2021/05/21 12:47:50;;;;;;;14.15;2.97;;;;;;;19.65;32.62;100183.22;4953632;29;20050;-71
2021/05/21 12:54:47;;;;;;;11.27;2.45;;;;;;;19.29;33.84;100180.47;4953712;29;20050;-69
2021/05/21 12:57:18;;;;;;;10.02;2.45;;;;;;;19.52;33.78;100183.91;4953588;29;20043;-71
2021/05/21 12:59:53;;;;;;;14.18;2.42;;;;;;;19.50;33.37;100175.91;4952325;29;20051;-72
2021/05/21 13:02:22;;;;;;;10.75;2.58;;;;;;;19.31;34.24;100172.53;4936444;29;20056;-69
2021/05/21 13:05:13;;;;;;;18.15;2.60;;;;;;;19.33;34.28;100173.78;4936553;29;20047;-69
2021/05/21 13:07:55;;;;;;;17.65;2.80;;;;;;;19.69;34.47;100174.88;4936197;29;20059;-70
2021/05/21 13:10:24;;;;;;;10.52;2.80;;;;;;;19.85;34.63;100153.84;4920352;29;20052;-69
2021/05/21 13:12:53;;;;;;;13.05;2.72;;;;;;;19.77;34.73;100149.38;4935995;29;20058;-67
2021/05/21 13:15:22;;;;;;;15.30;2.60;;;;;;;19.77;33.75;100154.19;4953221;29;20053;-67
2021/05/21 13:17:52;;;;;;;7.63;2.30;;;;;;;19.94;33.82;100157.09;4952364;29;20510;-66
2021/05/21 13:20:21;;;;;;;;;;;;;;;19.71;33.89;100150.94;4935982;29;20051;-67
2021/05/21 13:22:51;;;;;;;12.48;2.30;;;;;;;19.66;34.54;100153.28;4936136;29;19923;-67
2021/05/21 13:25:26;;;;;;;11.32;2.33;;;;;;;19.64;35.05;100148.09;4952772;29;20066;-67